createdAt,value
2024-03-05T00:01:47.084Z,68.08
2024-03-05T00:04:17.954Z,68.13
2024-03-05T00:06:50.405Z,68.23
2024-03-05T00:09:21.224Z,68.17
2024-03-05T00:11:52.193Z,68.58
2024-03-05T00:14:23.454Z,68.02
2024-03-05T00:16:53.836Z,68.08
2024-03-05T00:19:24.886Z,68.36
2024-03-05T00:21:55.485Z,68.48
2024-03-05T00:24:26.741Z,68.71
2024-03-05T00:26:57.032Z,68.74
2024-03-05T00:29:27.561Z,68.66
2024-03-05T00:31:58.438Z,68.82
2024-03-05T00:34:29.783Z,69.03
2024-03-05T00:37:01.275Z,68.68
2024-03-05T00:39:32.118Z,68.86
2024-03-05T00:42:02.946Z,68.74
2024-03-05T00:44:33.937Z,69.01
2024-03-05T00:47:04.732Z,69.11
2024-03-05T00:49:36.186Z,69.00
2024-03-05T00:52:07.327Z,69.33
2024-03-05T00:54:37.965Z,69.35
2024-03-05T00:57:09.205Z,69.17
2024-03-05T00:59:39.515Z,69.13
2024-03-05T01:02:10.541Z,69.69
2024-03-05T01:04:42.206Z,69.14
2024-03-05T01:07:13.718Z,69.62
2024-03-05T01:09:44.698Z,69.48
2024-03-05T01:12:15.710Z,69.45
2024-03-05T01:14:47.617Z,69.58
2024-03-05T01:17:18.395Z,69.43
2024-03-05T01:19:50.197Z,69.53
2024-03-05T01:22:21.085Z,69.47
2024-03-05T01:24:55.311Z,69.32
2024-03-05T01:27:28.138Z,69.39
2024-03-05T01:29:58.921Z,69.17
2024-03-05T01:32:32.116Z,69.52
2024-03-05T01:35:03.928Z,68.92
2024-03-05T01:37:34.703Z,69.00
2024-03-05T01:40:07.779Z,68.99
2024-03-05T01:42:38.788Z,69.04
2024-03-05T01:45:10.179Z,68.56
2024-03-05T01:47:41.164Z,68.68
2024-03-05T01:50:13.209Z,68.23
2024-03-05T01:52:44.953Z,68.59
2024-03-05T01:55:19.604Z,68.35
2024-03-05T01:57:53.662Z,68.24
2024-03-05T02:00:24.701Z,68.38
2024-03-05T02:02:55.851Z,68.37
2024-03-05T02:05:27.650Z,68.19
2024-03-05T02:07:58.584Z,68.00
2024-03-05T02:10:30.633Z,68.12
2024-03-05T02:13:01.561Z,68.12
2024-03-05T02:15:33.003Z,67.87
2024-03-05T02:18:04.340Z,67.71
2024-03-05T02:20:35.104Z,67.84
2024-03-05T02:23:08.761Z,67.75
2024-03-05T02:25:39.800Z,67.56
2024-03-05T02:28:11.974Z,67.50
2024-03-05T02:30:43.894Z,67.20
2024-03-05T02:33:17.003Z,66.69
2024-03-05T02:35:50.169Z,66.13
2024-03-05T02:38:21.465Z,65.83
2024-03-05T02:40:52.181Z,65.52
2024-03-05T02:43:24.535Z,65.15
2024-03-05T02:45:55.554Z,65.20
2024-03-05T02:48:26.663Z,64.77
2024-03-05T02:50:57.961Z,64.93
2024-03-05T02:53:29.102Z,64.57
2024-03-05T02:55:59.539Z,64.38
2024-03-05T02:58:30.438Z,64.47
2024-03-05T03:01:01.288Z,64.21
2024-03-05T03:03:33.004Z,64.24
2024-03-05T03:06:05.030Z,64.07
2024-03-05T03:08:36.749Z,63.88
2024-03-05T03:11:07.776Z,63.73
2024-03-05T03:13:39.058Z,64.10
2024-03-05T03:16:09.795Z,64.55
2024-03-05T03:18:40.580Z,63.25
2024-03-05T03:21:11.312Z,63.08
2024-03-05T03:23:42.106Z,63.11
2024-03-05T03:26:13.091Z,62.76
2024-03-05T03:28:44.068Z,62.83
2024-03-05T03:31:15.299Z,62.89
2024-03-05T03:33:45.552Z,62.60
2024-03-05T03:36:27.220Z,62.68
2024-03-05T03:38:57.919Z,62.59
2024-03-05T03:41:28.667Z,62.60
2024-03-05T03:43:59.493Z,62.24
2024-03-05T03:46:30.315Z,62.23
2024-03-05T03:49:01.208Z,62.17
2024-03-05T03:51:32.748Z,62.17
2024-03-05T03:54:03.365Z,61.99
2024-03-05T03:56:34.315Z,61.79
2024-03-05T03:59:05.055Z,61.54
2024-03-05T04:01:37.991Z,61.50
2024-03-05T04:04:09.402Z,61.20
2024-03-05T04:06:42.010Z,60.91
2024-03-05T04:09:13.125Z,60.78
2024-03-05T04:11:47.696Z,60.44
2024-03-05T04:14:19.031Z,59.62
2024-03-05T04:16:49.834Z,59.73
2024-03-05T04:19:20.346Z,59.63
2024-03-05T04:21:51.184Z,59.29
2024-03-05T04:24:22.018Z,59.30
2024-03-05T04:26:56.326Z,59.11
2024-03-05T04:29:33.583Z,58.54
2024-03-05T04:32:12.089Z,58.57
2024-03-05T04:34:45.577Z,58.32
2024-03-05T04:37:17.375Z,58.16
2024-03-05T04:39:49.988Z,58.29
2024-03-05T04:42:21.397Z,58.06
2024-03-05T04:44:52.451Z,57.68
2024-03-05T04:47:24.739Z,57.62
2024-03-05T04:49:55.592Z,57.93
2024-03-05T04:52:26.389Z,57.63
2024-03-05T04:54:58.685Z,57.29
2024-03-05T04:57:29.524Z,57.25
2024-03-05T05:00:01.670Z,57.12
2024-03-05T05:02:32.740Z,57.18
2024-03-05T05:05:07.359Z,56.94
2024-03-05T05:07:38.235Z,57.22
2024-03-05T05:10:11.765Z,56.60
2024-03-05T05:12:43.715Z,55.48
2024-03-05T05:15:15.905Z,55.78
2024-03-05T05:17:48.311Z,56.31
2024-03-05T05:20:19.066Z,56.19
2024-03-05T05:22:49.952Z,55.87
2024-03-05T05:25:23.451Z,55.89
2024-03-05T05:27:54.872Z,55.50
2024-03-05T05:30:27.159Z,55.38
2024-03-05T05:32:58.536Z,55.25
2024-03-05T05:35:29.256Z,55.13
2024-03-05T05:38:01.018Z,55.46
2024-03-05T05:40:32.541Z,55.05
2024-03-05T05:43:03.252Z,55.01
2024-03-05T05:45:34.224Z,55.44
2024-03-05T05:48:05.921Z,55.63
2024-03-05T05:50:37.737Z,55.76
2024-03-05T05:53:10.337Z,55.62
2024-03-05T05:55:41.384Z,55.43
2024-03-05T05:58:12.195Z,54.74
2024-03-05T06:00:43.650Z,54.93
2024-03-05T06:03:14.865Z,54.54
2024-03-05T06:05:46.624Z,53.90
2024-03-05T06:08:18.204Z,53.25
2024-03-05T06:10:49.677Z,53.82
2024-03-05T06:13:20.036Z,52.15
2024-03-05T06:15:52.477Z,52.91
2024-03-05T06:18:23.240Z,52.40
2024-03-05T06:20:55.127Z,53.08
2024-03-05T06:23:25.924Z,52.68
2024-03-05T06:25:57.452Z,52.56
2024-03-05T06:28:29.322Z,52.33
2024-03-05T06:31:00.067Z,52.46
2024-03-05T06:33:31.707Z,52.06
2024-03-05T06:36:02.504Z,52.44
2024-03-05T06:38:33.367Z,52.20
2024-03-05T06:41:04.735Z,51.45
2024-03-05T06:43:40.580Z,51.41
2024-03-05T06:46:16.924Z,51.03
2024-03-05T06:48:51.228Z,50.91
2024-03-05T06:51:35.124Z,51.00
2024-03-05T06:54:23.888Z,49.69
2024-03-05T06:56:55.679Z,48.27
2024-03-05T06:59:27.891Z,47.61
2024-03-05T07:01:59.524Z,46.80
2024-03-05T07:04:30.879Z,46.20
2024-03-05T07:07:02.699Z,45.60
2024-03-05T07:09:35.524Z,45.99
2024-03-05T07:12:06.722Z,45.86
2024-03-05T07:14:37.035Z,46.28
2024-03-05T07:17:10.138Z,45.74
2024-03-05T07:19:41.532Z,45.44
2024-03-05T07:22:12.621Z,44.53
2024-03-05T07:24:42.908Z,43.95
2024-03-05T07:27:15.605Z,44.24
2024-03-05T07:29:46.289Z,44.43
2024-03-05T07:32:19.371Z,44.47
2024-03-05T07:34:50.216Z,43.04
2024-03-05T07:37:20.745Z,43.67
2024-03-05T07:39:51.474Z,43.95
2024-03-05T07:42:22.120Z,43.21
2024-03-05T07:44:52.593Z,43.04
2024-03-05T07:47:23.114Z,43.99
2024-03-05T07:49:53.901Z,44.15
2024-03-05T07:52:25.190Z,42.90
2024-03-05T07:54:56.093Z,43.75
2024-03-05T07:57:26.814Z,43.76
2024-03-05T07:59:57.529Z,43.58
2024-03-05T08:02:28.866Z,42.64
2024-03-05T08:04:59.664Z,42.47
2024-03-05T08:07:30.523Z,43.17
2024-03-05T08:10:01.367Z,43.15
2024-03-05T08:12:32.243Z,42.56
2024-03-05T08:15:03.120Z,42.65
2024-03-05T08:17:40.271Z,41.95
2024-03-05T08:20:11.668Z,41.83
2024-03-05T08:22:42.818Z,41.94
2024-03-05T08:25:13.174Z,42.07
2024-03-05T08:27:47.807Z,41.93
2024-03-05T08:30:27.657Z,41.84
2024-03-05T08:32:58.898Z,41.71
2024-03-05T08:35:33.072Z,41.75
2024-03-05T08:38:03.839Z,41.91
2024-03-05T08:40:39.700Z,42.56
2024-03-05T08:43:12.879Z,44.20
2024-03-05T08:45:43.853Z,48.33
2024-03-05T08:48:14.699Z,49.98
2024-03-05T08:50:45.598Z,50.06
2024-03-05T08:53:17.717Z,49.69
2024-03-05T08:55:48.484Z,49.54
2024-03-05T08:58:19.287Z,49.54
2024-03-05T09:00:54.328Z,49.80
2024-03-05T09:03:25.137Z,50.00
2024-03-05T09:05:56.562Z,50.55
2024-03-05T09:08:27.230Z,50.57
2024-03-05T09:10:58.324Z,50.74
2024-03-05T09:13:29.543Z,50.75
2024-03-05T09:16:01.454Z,51.20
2024-03-05T09:18:32.871Z,51.38
2024-03-05T09:21:03.571Z,51.46
2024-03-05T09:23:34.597Z,51.66
2024-03-05T09:26:05.650Z,51.91
2024-03-05T09:28:38.111Z,51.93
2024-03-05T09:31:09.532Z,52.77
2024-03-05T09:33:42.290Z,53.47
2024-03-05T09:36:13.231Z,54.05
2024-03-05T09:38:44.318Z,54.11
2024-03-05T09:41:16.343Z,54.25
2024-03-05T09:43:48.844Z,54.73
2024-03-05T09:46:21.502Z,55.10
2024-03-05T09:48:53.016Z,54.96
2024-03-05T09:51:26.058Z,55.21
2024-03-05T09:53:57.288Z,55.47
2024-03-05T09:56:36.390Z,55.55
2024-03-05T09:59:11.426Z,55.74
2024-03-05T10:01:47.660Z,55.87
2024-03-05T10:04:20.782Z,55.83
2024-03-05T10:06:57.395Z,55.96
2024-03-05T10:09:28.783Z,56.20
2024-03-05T10:12:03.123Z,55.98
2024-03-05T10:14:34.912Z,56.09
2024-03-05T10:17:05.901Z,55.97
2024-03-05T10:19:46.318Z,56.26
2024-03-05T10:22:18.010Z,56.30
2024-03-05T10:24:49.341Z,56.21
2024-03-05T10:27:31.329Z,56.39
2024-03-05T10:30:02.224Z,56.04
2024-03-05T10:32:32.870Z,56.40
2024-03-05T10:35:04.636Z,56.18
2024-03-05T10:37:35.466Z,56.56
2024-03-05T10:40:12.099Z,56.44
2024-03-05T10:42:45.900Z,56.47
2024-03-05T10:45:18.132Z,56.59
2024-03-05T10:47:52.688Z,56.62
2024-03-05T10:50:24.406Z,56.52
2024-03-05T10:52:56.033Z,56.45
2024-03-05T10:55:28.691Z,56.56
2024-03-05T10:58:35.907Z,56.51
2024-03-05T11:01:10.591Z,56.60
2024-03-05T11:03:44.658Z,56.70
2024-03-05T11:06:20.593Z,56.84
2024-03-05T11:08:52.646Z,56.99
2024-03-05T11:11:27.487Z,56.88
2024-03-05T11:14:01.765Z,56.91
2024-03-05T11:16:37.182Z,56.96
2024-03-05T11:19:16.859Z,56.97
2024-03-05T11:21:47.933Z,57.19
2024-03-05T11:24:19.542Z,57.07
2024-03-05T11:26:50.182Z,57.04
2024-03-05T11:29:20.947Z,57.07
2024-03-05T11:31:54.479Z,57.09
2024-03-05T11:34:26.299Z,57.32
2024-03-05T11:37:13.304Z,57.16
2024-03-05T11:39:46.711Z,57.41
2024-03-05T11:42:22.112Z,57.76
2024-03-05T11:44:53.517Z,57.67
2024-03-05T11:47:25.139Z,57.78
2024-03-05T11:49:56.394Z,57.63
2024-03-05T11:52:29.109Z,57.67
2024-03-05T11:55:09.504Z,58.13
2024-03-05T11:57:40.275Z,58.25
2024-03-05T12:00:21.583Z,57.96
2024-03-05T12:02:58.590Z,58.03
2024-03-05T12:05:33.329Z,58.55
2024-03-05T12:08:12.300Z,58.49
2024-03-05T12:10:44.084Z,58.41
2024-03-05T12:13:22.335Z,58.64
2024-03-05T12:15:53.304Z,58.87
2024-03-05T12:18:24.033Z,58.76
2024-03-05T12:20:56.635Z,59.04
2024-03-05T12:23:41.141Z,59.05
2024-03-05T12:26:16.330Z,59.06
2024-03-05T12:28:47.153Z,58.73
2024-03-05T12:31:18.023Z,59.08
2024-03-05T12:33:49.078Z,59.32
2024-03-05T12:36:20.168Z,59.75
2024-03-05T12:38:50.610Z,59.87
2024-03-05T12:41:24.649Z,60.41
2024-03-05T12:43:59.517Z,60.58
2024-03-05T12:46:30.187Z,60.86
2024-03-05T12:49:02.313Z,60.77
2024-03-05T12:51:34.284Z,61.38
2024-03-05T12:54:12.638Z,61.20
2024-03-05T12:56:45.574Z,61.34
2024-03-05T12:59:23.112Z,61.18
2024-03-05T13:01:54.219Z,61.29
2024-03-05T13:04:25.194Z,61.28
2024-03-05T13:06:57.134Z,61.19
2024-03-05T13:09:27.947Z,61.25
2024-03-05T13:11:59.115Z,61.29
2024-03-05T13:14:30.020Z,61.75
2024-03-05T13:17:02.289Z,62.26
2024-03-05T13:19:33.086Z,62.41
2024-03-05T13:22:03.928Z,62.59
2024-03-05T13:24:37.820Z,62.50
2024-03-05T13:27:09.050Z,62.79
2024-03-05T13:29:39.372Z,62.60
2024-03-05T13:32:10.851Z,62.82
2024-03-05T13:34:41.599Z,62.73
2024-03-05T13:37:12.898Z,63.03
2024-03-05T13:39:47.517Z,63.52
2024-03-05T13:42:18.452Z,63.24
2024-03-05T13:44:49.219Z,63.39
2024-03-05T13:47:20.777Z,63.68
2024-03-05T13:49:51.859Z,63.80
2024-03-05T13:52:22.703Z,63.85
2024-03-05T13:54:53.539Z,64.21
2024-03-05T13:57:24.227Z,64.01
2024-03-05T13:59:55.053Z,64.49
2024-03-05T14:02:26.588Z,64.71
2024-03-05T14:04:56.924Z,65.17
2024-03-05T14:07:27.573Z,64.89
2024-03-05T14:09:59.947Z,65.05
2024-03-05T14:12:34.604Z,65.46
2024-03-05T14:15:12.756Z,65.60
2024-03-05T14:17:44.018Z,65.85
2024-03-05T14:20:16.731Z,65.63
2024-03-05T14:22:47.900Z,65.74
2024-03-05T14:25:21.714Z,65.79
2024-03-05T14:27:52.522Z,66.06
2024-03-05T14:30:23.268Z,66.03
2024-03-05T14:32:54.162Z,65.99
2024-03-05T14:35:26.276Z,65.88
2024-03-05T14:39:41.744Z,65.55
2024-03-05T14:42:13.931Z,65.35
2024-03-05T14:44:45.013Z,65.34
2024-03-05T14:47:17.061Z,65.62
2024-03-05T14:49:49.132Z,65.61
2024-03-05T14:52:20.333Z,65.84
2024-03-05T14:54:51.387Z,66.06
2024-03-05T14:57:22.186Z,66.35
2024-03-05T14:59:52.921Z,66.36
2024-03-05T15:02:23.966Z,66.56
2024-03-05T15:04:54.484Z,66.97
2024-03-05T15:07:25.916Z,66.93
2024-03-05T15:09:57.399Z,67.36
2024-03-05T15:12:28.544Z,67.56
2024-03-05T15:14:59.489Z,67.20
2024-03-05T15:17:30.177Z,66.87
2024-03-05T15:20:02.700Z,66.74
2024-03-05T15:22:33.647Z,66.94
2024-03-05T15:25:04.523Z,66.83
2024-03-05T15:27:35.286Z,66.64
2024-03-05T15:30:16.166Z,66.81
2024-03-05T15:32:51.042Z,66.30
2024-03-05T15:35:26.487Z,66.33
2024-03-05T15:38:02.717Z,66.00
2024-03-05T15:40:36.004Z,66.00
2024-03-05T15:43:08.597Z,66.16
2024-03-05T15:45:41.508Z,65.85
2024-03-05T15:48:13.315Z,65.72
2024-03-05T15:50:44.693Z,65.84
2024-03-05T15:53:15.680Z,65.84
2024-03-05T15:55:48.385Z,65.86
2024-03-05T15:58:45.079Z,65.85
2024-03-05T16:01:16.210Z,65.69
2024-03-05T16:03:58.215Z,65.60
2024-03-05T16:06:37.724Z,65.54
2024-03-05T16:09:08.359Z,65.66
2024-03-05T16:11:40.826Z,65.57
2024-03-05T16:14:12.073Z,65.41
2024-03-05T16:16:43.036Z,65.48
2024-03-05T16:19:16.964Z,65.27
2024-03-05T16:21:52.844Z,65.41
2024-03-05T16:24:23.857Z,65.04
2024-03-05T16:26:57.630Z,64.96
2024-03-05T16:29:28.629Z,65.12
2024-03-05T16:32:01.358Z,65.05
2024-03-05T16:34:32.210Z,65.11
2024-03-05T16:37:02.840Z,64.75
2024-03-05T16:39:33.555Z,64.80
2024-03-05T16:42:04.014Z,64.82
2024-03-05T16:44:35.217Z,64.68
2024-03-05T16:47:06.541Z,64.53
2024-03-05T16:49:37.923Z,64.94
2024-03-05T16:52:10.223Z,64.60
2024-03-05T16:54:41.091Z,64.80
2024-03-05T16:57:13.671Z,64.82
2024-03-05T16:59:45.276Z,64.94
2024-03-05T17:02:17.973Z,64.86
2024-03-05T17:04:50.930Z,65.12
2024-03-05T17:07:21.759Z,65.09
2024-03-05T17:09:52.768Z,65.11
2024-03-05T17:12:23.893Z,65.13
2024-03-05T17:14:54.359Z,65.31
2024-03-05T17:17:24.994Z,65.14
2024-03-05T17:19:59.362Z,65.28
2024-03-05T17:22:31.713Z,65.36
2024-03-05T17:25:04.311Z,65.38
2024-03-05T17:27:37.138Z,65.37
2024-03-05T17:30:13.586Z,65.35
2024-03-05T17:32:45.861Z,65.20
2024-03-05T17:35:18.217Z,65.23
2024-03-05T17:37:49.763Z,65.39
2024-03-05T17:40:20.431Z,65.24
2024-03-05T17:42:52.563Z,65.38
2024-03-05T17:45:23.546Z,65.58
2024-03-05T17:47:55.048Z,65.67
2024-03-05T17:50:26.746Z,65.69
2024-03-05T17:52:57.548Z,65.58
2024-03-05T17:55:28.730Z,65.78
2024-03-05T17:57:59.675Z,65.63
2024-03-05T18:00:31.116Z,65.56
2024-03-05T18:03:07.866Z,65.53
2024-03-05T18:05:38.591Z,65.56
2024-03-05T18:08:09.527Z,65.55
2024-03-05T18:10:40.907Z,65.73
2024-03-05T18:13:13.023Z,65.83
2024-03-05T18:15:44.500Z,65.81
2024-03-05T18:18:17.645Z,65.59
2024-03-05T18:20:48.964Z,65.53
2024-03-05T18:23:19.848Z,65.65
2024-03-05T18:25:51.685Z,65.67
2024-03-05T18:28:25.575Z,65.75
2024-03-05T18:30:57.511Z,65.60
2024-03-05T18:33:28.663Z,65.70
2024-03-05T18:36:03.029Z,65.71
2024-03-05T18:38:34.310Z,65.80
2024-03-05T18:41:06.033Z,65.84
2024-03-05T18:43:37.149Z,65.86
2024-03-05T18:46:10.031Z,66.03
2024-03-05T18:48:40.723Z,65.83
2024-03-05T18:51:13.365Z,65.92
2024-03-05T18:53:49.423Z,65.86
2024-03-05T18:56:21.069Z,65.95
2024-03-05T18:58:52.259Z,66.02
2024-03-05T19:01:23.032Z,66.04
2024-03-05T19:04:01.423Z,66.06
2024-03-05T19:06:39.952Z,66.05
2024-03-05T19:09:12.277Z,65.98
2024-03-05T19:11:46.559Z,66.11
2024-03-05T19:14:19.149Z,66.06
2024-03-05T19:16:52.621Z,65.89
2024-03-05T19:19:23.399Z,66.20
2024-03-05T19:21:54.627Z,66.07
2024-03-05T19:24:25.251Z,66.24
2024-03-05T19:26:57.020Z,66.37
2024-03-05T19:29:30.166Z,66.36
2024-03-05T19:32:00.631Z,66.37
2024-03-05T19:34:31.561Z,66.37
2024-03-05T19:37:02.238Z,66.49
2024-03-05T19:39:33.114Z,66.34
2024-03-05T19:42:04.463Z,66.40
2024-03-05T19:44:36.109Z,66.35
2024-03-05T19:47:07.005Z,66.44
2024-03-05T19:49:38.528Z,66.34
2024-03-05T19:52:10.160Z,66.29
2024-03-05T19:54:40.993Z,66.50
2024-03-05T19:57:12.197Z,66.53
2024-03-05T19:59:43.030Z,66.55
2024-03-05T20:02:14.083Z,66.53
2024-03-05T20:04:45.095Z,66.60
2024-03-05T20:07:17.100Z,66.47
2024-03-05T20:09:48.729Z,66.51
2024-03-05T20:12:19.581Z,66.48
2024-03-05T20:14:51.093Z,66.56
2024-03-05T20:17:24.223Z,66.72
2024-03-05T20:19:56.467Z,66.76
2024-03-05T20:22:31.460Z,66.80
2024-03-05T20:25:03.643Z,66.53
2024-03-05T20:27:34.769Z,66.71
2024-03-05T20:30:15.650Z,66.66
2024-03-05T20:32:48.411Z,66.80
2024-03-05T20:35:20.557Z,66.75
2024-03-05T20:37:53.633Z,66.68
2024-03-05T20:40:26.434Z,66.83
2024-03-05T20:42:57.777Z,66.78
2024-03-05T20:45:29.128Z,66.88
2024-03-05T20:47:59.869Z,66.84
2024-03-05T20:50:31.814Z,66.82
2024-03-05T20:53:02.629Z,66.74
2024-03-05T20:55:33.936Z,66.86
2024-03-05T20:58:04.828Z,66.95
2024-03-05T21:00:35.804Z,67.08
2024-03-05T21:03:07.055Z,66.96
2024-03-05T21:05:37.558Z,67.02
2024-03-05T21:08:09.285Z,66.95
2024-03-05T21:10:40.284Z,66.96
2024-03-05T21:13:11.847Z,67.34
2024-03-05T21:15:42.731Z,67.26
2024-03-05T21:18:13.988Z,67.12
2024-03-05T21:20:45.013Z,66.94
2024-03-05T21:23:18.444Z,67.48
2024-03-05T21:26:02.712Z,67.39
2024-03-05T21:28:41.037Z,67.27
2024-03-05T21:31:12.317Z,67.19
2024-03-05T21:33:43.139Z,67.31
2024-03-05T21:36:13.996Z,67.29
2024-03-05T21:38:44.727Z,67.45
2024-03-05T21:41:16.078Z,67.35
2024-03-05T21:43:47.674Z,67.50
2024-03-05T21:46:18.585Z,67.35
2024-03-05T21:48:49.631Z,67.39
2024-03-05T21:51:20.661Z,67.45
2024-03-05T21:53:51.650Z,67.41
2024-03-05T21:56:22.382Z,67.40
2024-03-05T21:58:53.384Z,67.39
2024-03-05T22:01:24.171Z,67.30
2024-03-05T22:03:54.963Z,67.50
2024-03-05T22:06:25.646Z,67.40
2024-03-05T22:09:00.132Z,67.64
2024-03-05T22:11:31.365Z,67.54
2024-03-05T22:14:02.820Z,67.71
2024-03-05T22:16:33.658Z,67.42
2024-03-05T22:19:29.552Z,67.91
2024-03-05T22:22:00.261Z,68.21
2024-03-05T22:24:31.051Z,68.05
2024-03-05T22:27:01.864Z,68.00
2024-03-05T22:29:33.879Z,68.20
2024-03-05T22:32:04.394Z,68.07
2024-03-05T22:34:37.061Z,68.24
2024-03-05T22:37:08.168Z,67.88
2024-03-05T22:39:40.415Z,68.09
2024-03-05T22:42:11.208Z,67.94
2024-03-05T22:44:43.712Z,68.29
2024-03-05T22:47:14.654Z,68.23
2024-03-05T22:49:47.004Z,68.17
2024-03-05T22:52:19.638Z,68.42
2024-03-05T22:54:50.826Z,68.50
2024-03-05T22:57:21.759Z,68.34
2024-03-05T22:59:52.224Z,68.63
2024-03-05T23:02:24.708Z,68.34
2024-03-05T23:04:55.856Z,68.27
2024-03-05T23:07:27.182Z,68.10
2024-03-05T23:09:57.867Z,68.41
2024-03-05T23:12:28.656Z,68.43
2024-03-05T23:15:00.184Z,68.40
2024-03-05T23:17:30.869Z,68.54
2024-03-05T23:20:01.738Z,68.34
2024-03-05T23:22:32.510Z,68.18
2024-03-05T23:25:03.347Z,68.47
2024-03-05T23:27:34.032Z,68.46
2024-03-05T23:30:07.415Z,68.79
2024-03-05T23:32:38.232Z,68.57
2024-03-05T23:35:09.917Z,68.62
2024-03-05T23:37:40.936Z,68.42
2024-03-05T23:40:13.239Z,68.78
2024-03-05T23:42:44.158Z,68.95
2024-03-05T23:45:15.141Z,68.69
2024-03-05T23:47:46.066Z,68.98
2024-03-05T23:50:17.111Z,68.86
2024-03-05T23:52:47.867Z,68.96
2024-03-05T23:55:18.782Z,68.87
2024-03-05T23:57:49.602Z,69.07
